Time;durP1;ratioP1;P1;durP2;ratioP2;P2;SDS_P1;SDS_P2;PMS_P1;PMS_P2;Temp;Humidity;BMP_temperature;BMP_pressure;BME280_temperature;BME280_humidity;BME280_pressure;Samples;Min_cycle;Max_cycle;Signal;HPM_P1;HPM_P2
2023/10/11 00:00:52;;;;;;;8.23;4.10;;;14.60;99.90;;;;;;470007;253;28543;-74
2023/10/11 00:02:54;;;;;;;11.20;4.20;;;14.60;99.90;;;;;;470068;253;28499;-72
2023/10/11 00:04:55;;;;;;;8.83;5.07;;;14.60;99.90;;;;;;470090;253;28613;-72
2023/10/11 00:06:56;;;;;;;10.60;4.70;;;14.60;99.90;;;;;;470075;253;28660;-74
2023/10/11 00:08:57;;;;;;;10.13;4.30;;;14.60;99.90;;;;;;470065;253;29376;-71
2023/10/11 00:10:59;;;;;;;13.70;5.00;;;14.60;99.90;;;;;;470115;253;29550;-72
2023/10/11 00:13:00;;;;;;;10.43;5.40;;;14.60;99.90;;;;;;470091;253;28960;-71
2023/10/11 00:15:02;;;;;;;8.10;4.50;;;14.50;99.90;;;;;;470070;253;28696;-72
2023/10/11 00:17:04;;;;;;;14.27;4.70;;;14.50;99.90;;;;;;470085;253;28959;-73
2023/10/11 00:19:09;;;;;;;10.63;4.57;;;14.40;99.90;;;;;;470033;253;29006;-72
2023/10/11 00:21:11;;;;;;;14.90;5.43;;;14.40;99.90;;;;;;469686;253;28703;-72
2023/10/11 00:23:12;;;;;;;10.53;4.53;;;14.40;99.90;;;;;;470095;253;28698;-72
2023/10/11 00:25:23;;;;;;;12.03;4.97;;;14.40;99.90;;;;;;470092;253;29060;-72
2023/10/11 00:27:16;;;;;;;9.03;5.83;;;14.30;99.90;;;;;;469298;253;28972;-73
2023/10/11 00:29:16;;;;;;;11.00;4.67;;;14.20;99.90;;;;;;470011;253;28533;-72
2023/10/11 00:31:17;;;;;;;9.77;5.40;;;14.30;99.90;;;;;;470089;253;28970;-72
2023/10/11 00:33:18;;;;;;;9.73;5.03;;;14.30;99.90;;;;;;470110;253;29470;-72
2023/10/11 00:35:20;;;;;;;14.93;5.20;;;14.30;99.90;;;;;;469985;253;29129;-72
2023/10/11 00:37:21;;;;;;;8.00;4.93;;;14.30;99.90;;;;;;470095;253;29027;-72
2023/10/11 00:39:24;;;;;;;11.93;5.37;;;14.20;99.90;;;;;;470093;253;28490;-72
2023/10/11 00:41:30;;;;;;;6.77;4.00;;;14.30;99.90;;;;;;469974;253;28602;-72
2023/10/11 00:43:24;;;;;;;9.20;5.10;;;14.30;99.90;;;;;;469566;253;28366;-72
2023/10/11 00:45:30;;;;;;;9.10;4.60;;;14.20;99.90;;;;;;470114;253;28502;-72
2023/10/11 00:47:27;;;;;;;13.03;5.13;;;14.30;99.90;;;;;;469749;253;28546;-73
2023/10/11 00:49:39;;;;;;;15.03;5.97;;;14.30;99.90;;;;;;470085;253;28393;-72
2023/10/11 00:51:39;;;;;;;15.60;6.17;;;14.30;99.90;;;;;;469930;253;28563;-74
2023/10/11 00:53:40;;;;;;;9.40;5.00;;;14.30;99.90;;;;;;470058;253;28999;-72
2023/10/11 00:55:42;;;;;;;9.13;4.77;;;14.30;99.90;;;;;;469919;253;29065;-72
2023/10/11 00:57:42;;;;;;;7.67;4.83;;;14.30;99.90;;;;;;470006;253;29160;-72
2023/10/11 00:59:44;;;;;;;12.17;5.77;;;14.30;99.90;;;;;;470117;253;28938;-72
2023/10/11 01:01:45;;;;;;;12.53;5.30;;;14.30;99.90;;;;;;470077;253;28973;-73
2023/10/11 01:03:46;;;;;;;13.30;5.70;;;14.40;99.90;;;;;;470107;253;28386;-72
2023/10/11 01:05:48;;;;;;;8.90;4.93;;;14.30;99.90;;;;;;470102;253;28962;-73
2023/10/11 01:07:53;;;;;;;9.07;5.90;;;14.20;99.90;;;;;;470063;253;28623;-72
2023/10/11 01:09:53;;;;;;;11.20;4.97;;;14.30;99.90;;;;;;469999;253;28657;-72
2023/10/11 01:11:54;;;;;;;9.23;4.37;;;14.30;99.90;;;;;;469947;253;28602;-72
2023/10/11 01:13:55;;;;;;;8.33;5.40;;;14.10;99.90;;;;;;470093;253;28634;-73
2023/10/11 01:15:57;;;;;;;6.90;4.67;;;14.00;99.90;;;;;;470106;253;28483;-72
2023/10/11 01:17:58;;;;;;;13.40;6.00;;;14.00;99.90;;;;;;470082;253;28441;-72
2023/10/11 01:19:59;;;;;;;9.43;5.33;;;13.90;99.90;;;;;;470077;253;29097;-71
2023/10/11 01:22:00;;;;;;;11.73;5.87;;;14.00;99.90;;;;;;470087;253;28448;-72
2023/10/11 01:24:02;;;;;;;18.13;6.80;;;13.90;99.90;;;;;;470040;253;28560;-72
2023/10/11 01:26:09;;;;;;;9.07;4.47;;;14.00;99.90;;;;;;469961;250;29375;-72
2023/10/11 01:28:07;;;;;;;12.43;6.43;;;13.90;99.90;;;;;;469767;253;28524;-71
2023/10/11 01:30:09;;;;;;;11.00;5.87;;;14.00;99.90;;;;;;470110;253;28559;-72
2023/10/11 01:32:10;;;;;;;8.00;5.30;;;14.00;99.90;;;;;;470076;253;28622;-72
2023/10/11 01:34:14;;;;;;;10.83;6.03;;;14.00;99.90;;;;;;470141;252;28538;-72
2023/10/11 01:36:14;;;;;;;8.13;5.00;;;14.00;99.90;;;;;;469909;253;28588;-72
2023/10/11 01:38:17;;;;;;;7.53;5.07;;;14.00;99.90;;;;;;469982;253;28410;-72
2023/10/11 01:40:20;;;;;;;5.90;4.50;;;13.90;99.90;;;;;;469904;253;28487;-72
2023/10/11 01:42:17;;;;;;;6.73;4.80;;;13.90;99.90;;;;;;469705;253;28866;-72
2023/10/11 01:44:18;;;;;;;8.47;4.77;;;13.90;99.90;;;;;;470050;253;28893;-74
2023/10/11 01:46:24;;;;;;;16.33;5.97;;;13.90;99.90;;;;;;470104;253;28976;-72
2023/10/11 01:48:20;;;;;;;11.90;6.03;;;13.90;99.90;;;;;;469676;253;28566;-72
2023/10/11 01:50:21;;;;;;;13.80;6.20;;;13.90;99.90;;;;;;470113;253;28366;-72
2023/10/11 01:52:25;;;;;;;11.17;5.60;;;13.90;99.90;;;;;;470100;253;28536;-72
2023/10/11 01:54:24;;;;;;;10.07;5.87;;;13.80;99.90;;;;;;469907;253;28433;-74
2023/10/11 01:56:25;;;;;;;12.30;5.50;;;13.80;99.90;;;;;;470084;253;28478;-72
2023/10/11 01:58:26;;;;;;;14.10;5.97;;;13.80;99.90;;;;;;470130;253;28383;-72
2023/10/11 02:00:29;;;;;;;11.40;5.30;;;13.70;99.90;;;;;;470105;253;28414;-72
2023/10/11 02:02:32;;;;;;;11.67;4.97;;;13.80;99.90;;;;;;470018;253;28820;-72
2023/10/11 02:04:30;;;;;;;8.60;4.97;;;13.80;99.90;;;;;;469871;253;28906;-73
2023/10/11 02:06:34;;;;;;;8.80;5.10;;;13.70;99.90;;;;;;470128;253;28589;-72
2023/10/11 02:08:36;;;;;;;8.80;4.80;;;13.70;99.90;;;;;;470136;253;28520;-72
2023/10/11 02:10:36;;;;;;;10.33;5.00;;;13.70;99.90;;;;;;470091;253;28752;-72
2023/10/11 02:12:38;;;;;;;7.30;4.37;;;13.60;99.90;;;;;;470108;253;29612;-72
2023/10/11 02:14:40;;;;;;;10.80;5.00;;;13.60;99.90;;;;;;470130;253;28844;-72
2023/10/11 02:16:40;;;;;;;13.80;5.23;;;13.50;99.90;;;;;;470107;253;28419;-72
2023/10/11 02:18:41;;;;;;;7.50;5.03;;;13.60;99.90;;;;;;470150;253;28376;-71
2023/10/11 02:20:46;;;;;;;5.90;3.90;;;13.60;99.90;;;;;;470117;253;28291;-72
2023/10/11 02:22:50;;;;;;;12.87;4.70;;;13.60;99.90;;;;;;470091;253;28308;-73
2023/10/11 02:24:51;;;;;;;13.50;5.10;;;13.50;99.90;;;;;;469975;253;28312;-71
2023/10/11 02:26:49;;;;;;;7.83;4.80;;;13.50;99.90;;;;;;469930;253;28381;-71
2023/10/11 02:28:51;;;;;;;7.53;4.00;;;13.50;99.90;;;;;;470147;253;28318;-72
2023/10/11 02:30:52;;;;;;;15.87;5.90;;;13.50;99.90;;;;;;470124;253;29598;-71
2023/10/11 02:32:53;;;;;;;9.83;4.90;;;13.50;99.90;;;;;;470063;253;28845;-71
2023/10/11 02:34:54;;;;;;;8.40;4.70;;;13.40;99.90;;;;;;470107;253;28812;-73
2023/10/11 02:37:05;;;;;;;8.97;4.90;;;13.40;99.90;;;;;;470129;253;28400;-72
2023/10/11 02:39:00;;;;;;;13.67;4.77;;;13.30;99.90;;;;;;469623;253;28735;-72
2023/10/11 02:41:02;;;;;;;10.00;4.60;;;13.30;99.90;;;;;;470117;253;28789;-72
2023/10/11 02:43:03;;;;;;;7.20;4.93;;;13.30;99.90;;;;;;470109;253;28853;-72
2023/10/11 02:45:06;;;;;;;7.10;4.60;;;13.30;99.90;;;;;;470101;253;28392;-72
2023/10/11 02:47:06;;;;;;;13.10;4.50;;;13.30;99.90;;;;;;469929;253;28327;-72
2023/10/11 02:49:06;;;;;;;8.10;4.93;;;13.30;99.90;;;;;;470054;253;28257;-72
2023/10/11 02:51:14;;;;;;;8.97;4.33;;;13.30;99.90;;;;;;470113;253;28601;-71
2023/10/11 02:53:21;;;;;;;17.93;5.40;;;;;;;;;;469661;253;28388;-72
2023/10/11 02:55:20;;;;;;;9.40;5.13;;;13.20;99.90;;;;;;469624;253;26714;-73
2023/10/11 02:57:21;;;;;;;11.10;5.33;;;13.20;99.90;;;;;;469545;253;28354;-72
2023/10/11 02:59:25;;;;;;;9.60;4.80;;;13.30;99.90;;;;;;470115;249;28868;-71
2023/10/11 03:01:31;;;;;;;8.03;4.80;;;13.40;99.90;;;;;;470140;253;28609;-72
2023/10/11 03:03:27;;;;;;;13.20;5.20;;;13.30;99.90;;;;;;469769;253;28324;-72
2023/10/11 03:05:29;;;;;;;14.03;4.77;;;13.40;99.90;;;;;;470128;253;28301;-72
2023/10/11 03:07:33;;;;;;;10.80;5.40;;;;;;;;;;470105;253;28350;-72
2023/10/11 03:09:33;;;;;;;7.37;4.60;;;13.20;99.90;;;;;;470051;253;26810;-72
2023/10/11 03:11:34;;;;;;;11.87;5.30;;;13.20;99.90;;;;;;470091;253;28307;-72
2023/10/11 03:13:44;;;;;;;12.90;5.63;;;13.20;99.90;;;;;;470131;253;28495;-74
2023/10/11 03:15:38;;;;;;;8.47;4.57;;;13.30;99.90;;;;;;468743;253;28439;-72
2023/10/11 03:17:42;;;;;;;12.73;5.53;;;;;;;;;;469947;253;28442;-71
2023/10/11 03:19:42;;;;;;;7.50;4.13;;;13.20;99.90;;;;;;470062;253;26771;-72
2023/10/11 03:21:44;;;;;;;12.97;5.00;;;13.20;99.90;;;;;;470081;253;28952;-72
2023/10/11 03:23:45;;;;;;;9.50;5.10;;;13.20;99.90;;;;;;470098;253;28979;-72
2023/10/11 03:25:49;;;;;;;8.90;4.73;;;13.10;99.90;;;;;;469965;253;28278;-72
2023/10/11 03:27:51;;;;;;;9.50;4.87;;;13.10;99.90;;;;;;469740;253;29406;-72
2023/10/11 03:29:50;;;;;;;6.10;4.33;;;13.10;99.90;;;;;;469530;253;28702;-72
2023/10/11 03:31:50;;;;;;;8.27;4.40;;;13.00;99.90;;;;;;469980;253;28864;-72
2023/10/11 03:33:51;;;;;;;8.13;5.10;;;13.00;99.90;;;;;;470020;253;28874;-74
2023/10/11 03:35:54;;;;;;;10.17;4.50;;;13.10;99.90;;;;;;470125;253;28548;-72
2023/10/11 03:37:59;;;;;;;11.40;5.10;;;13.00;99.90;;;;;;469993;253;28380;-72
2023/10/11 03:40:01;;;;;;;7.87;4.33;;;13.00;99.90;;;;;;470120;253;28600;-72
2023/10/11 03:42:14;;;;;;;11.13;5.00;;;12.90;99.90;;;;;;470089;253;29010;-72
2023/10/11 03:44:11;;;;;;;10.83;5.43;;;12.80;99.90;;;;;;469623;253;28466;-72
2023/10/11 03:46:15;;;;;;;13.63;5.43;;;12.90;99.90;;;;;;470081;253;28845;-72
2023/10/11 03:48:17;;;;;;;15.00;4.93;;;13.00;99.90;;;;;;470090;253;28737;-72
2023/10/11 03:50:25;;;;;;;10.33;4.70;;;13.00;99.90;;;;;;469981;253;28269;-72
2023/10/11 03:54:23;;;;;;;11.17;5.30;;;12.90;99.90;;;;;;470045;253;28376;-72
2023/10/11 03:56:26;;;;;;;6.47;3.80;;;;;;;;;;470104;253;28342;-71
2023/10/11 04:00:46;;;;;;;7.90;4.80;;;13.00;99.90;;;;;;470080;253;26562;-71
2023/10/11 04:02:35;;;;;;;9.90;5.40;;;;;;;;;;469011;253;28340;-72
2023/10/11 04:04:36;;;;;;;9.90;4.53;;;13.00;99.90;;;;;;470101;253;27150;-72
2023/10/11 04:06:37;;;;;;;10.53;4.40;;;13.00;99.90;;;;;;469854;253;28250;-72
2023/10/11 04:08:41;;;;;;;9.03;5.50;;;13.10;99.90;;;;;;470115;253;28403;-72
2023/10/11 04:10:42;;;;;;;13.80;5.23;;;13.10;99.90;;;;;;469981;253;28369;-72
2023/10/11 04:12:42;;;;;;;8.40;4.67;;;;;;;;;;469927;253;28274;-71
2023/10/11 04:14:44;;;;;;;11.50;5.23;;;13.20;99.90;;;;;;469950;253;28887;-72
2023/10/11 04:16:45;;;;;;;7.33;4.70;;;13.20;99.90;;;;;;470083;253;28368;-72
2023/10/11 04:18:46;;;;;;;13.93;5.87;;;13.10;99.90;;;;;;469855;253;28435;-73
2023/10/11 04:21:16;;;;;;;7.13;4.43;;;13.00;99.90;;;;;;470132;253;28279;-72
2023/10/11 04:23:10;;;;;;;7.87;4.63;;;12.90;99.90;;;;;;468768;253;28450;-72
2023/10/11 04:25:14;;;;;;;8.30;4.33;;;12.90;99.90;;;;;;470115;253;28993;-72
2023/10/11 04:29:25;;;;;;;13.23;5.43;;;12.80;99.90;;;;;;470097;253;28665;-72
2023/10/11 04:31:36;;;;;;;7.33;4.37;;;13.00;99.90;;;;;;469896;253;28749;-71
2023/10/11 04:33:37;;;;;;;10.60;4.77;;;13.10;99.90;;;;;;469840;253;29036;-73
2023/10/11 04:35:38;;;;;;;11.60;5.60;;;13.10;99.90;;;;;;469941;253;29085;-72
2023/10/11 04:37:54;;;;;;;8.63;4.93;;;12.90;99.90;;;;;;470123;253;28471;-71
2023/10/11 04:39:50;;;;;;;5.17;4.47;;;12.80;99.90;;;;;;468243;253;28435;-72
2023/10/11 04:41:49;;;;;;;9.10;4.33;;;12.80;99.90;;;;;;469346;253;28406;-71
2023/10/11 04:43:50;;;;;;;7.50;4.73;;;12.70;99.90;;;;;;469476;253;28714;-72
2023/10/11 04:45:44;;;;;;;8.43;4.07;;;12.70;99.90;;;;;;469555;253;28442;-73
2023/10/11 04:47:52;;;;;;;9.73;4.70;;;12.70;99.90;;;;;;470087;253;29027;-71
2023/10/11 04:49:52;;;;;;;8.73;5.63;;;12.70;99.90;;;;;;470020;253;28954;-72
2023/10/11 04:51:57;;;;;;;10.37;5.67;;;12.80;99.90;;;;;;470089;253;28662;-71
2023/10/11 04:53:58;;;;;;;11.43;5.40;;;12.90;99.90;;;;;;470126;253;28234;-71
2023/10/11 04:56:51;;;;;;;14.20;5.03;;;13.10;99.90;;;;;;470050;253;28542;-71
2023/10/11 04:58:07;;;;;;;14.80;6.60;;;13.10;99.90;;;;;;468371;253;29326;-71
2023/10/11 05:00:09;;;;;;;8.47;4.97;;;13.00;99.90;;;;;;470041;253;28973;-72
2023/10/11 05:02:28;;;;;;;8.23;5.10;;;12.90;99.90;;;;;;470062;253;28275;-72
2023/10/11 05:04:28;;;;;;;9.63;5.60;;;13.00;99.90;;;;;;469776;253;28440;-72
2023/10/11 05:06:39;;;;;;;11.67;4.23;;;12.90;99.90;;;;;;470114;253;29002;-72
2023/10/11 05:10:52;;;;;;;7.13;5.10;;;12.80;99.90;;;;;;470129;253;28156;-71
2023/10/11 05:13:04;;;;;;;8.97;4.63;;;12.80;99.90;;;;;;469882;253;28953;-73
2023/10/11 05:16:59;;;;;;;14.63;5.60;;;;;;;;;;470078;253;28305;-71
2023/10/11 05:19:04;;;;;;;13.60;5.67;;;12.80;99.90;;;;;;469942;253;27060;-71
2023/10/11 05:21:03;;;;;;;8.93;5.63;;;12.80;99.90;;;;;;469454;253;28284;-72
2023/10/11 05:23:05;;;;;;;7.50;4.70;;;12.90;99.90;;;;;;469870;253;28384;-71
2023/10/11 05:27:11;;;;;;;11.33;5.40;;;12.80;99.90;;;;;;470074;253;28529;-71
2023/10/11 05:29:23;;;;;;;12.60;5.10;;;12.70;99.90;;;;;;469490;253;28429;-72
2023/10/11 05:33:31;;;;;;;7.27;4.77;;;12.60;99.90;;;;;;470074;253;28626;-71
2023/10/11 05:35:43;;;;;;;16.60;5.80;;;12.70;99.90;;;;;;468600;253;28745;-71
2023/10/11 05:51:19;;;;;;;10.23;5.60;;;12.80;99.90;;;;;;470111;253;28979;-74
2023/10/11 05:53:20;;;;;;;10.23;4.70;;;12.70;99.90;;;;;;470150;253;28148;-72
2023/10/11 05:55:22;;;;;;;10.80;4.50;;;12.70;99.90;;;;;;470093;253;28416;-73
2023/10/11 05:57:27;;;;;;;10.03;5.27;;;12.70;99.90;;;;;;470169;253;28391;-73
2023/10/11 05:59:24;;;;;;;11.83;5.00;;;12.70;99.90;;;;;;469536;253;28289;-72
2023/10/11 06:01:26;;;;;;;13.50;5.17;;;12.70;99.90;;;;;;470122;253;28953;-74
2023/10/11 06:03:28;;;;;;;8.50;4.90;;;12.70;99.90;;;;;;470141;253;29172;-72
2023/10/11 06:05:28;;;;;;;10.03;5.53;;;12.80;99.90;;;;;;470038;253;28909;-72
2023/10/11 06:07:36;;;;;;;9.20;5.40;;;12.80;99.90;;;;;;470204;253;28784;-72
2023/10/11 06:09:38;;;;;;;9.43;4.00;;;;;;;;;;469554;253;28478;-72
2023/10/11 06:11:36;;;;;;;12.00;5.60;;;12.90;99.90;;;;;;469813;253;26649;-72
2023/10/11 06:13:34;;;;;;;12.47;5.60;;;12.90;99.90;;;;;;469882;253;28404;-72
2023/10/11 06:15:36;;;;;;;12.53;5.30;;;13.00;99.90;;;;;;470024;253;29481;-72
2023/10/11 06:17:42;;;;;;;17.47;5.33;;;13.10;99.90;;;;;;470116;253;28774;-73
2023/10/11 06:19:53;;;;;;;8.73;4.90;;;13.00;99.90;;;;;;470136;253;28310;-73
2023/10/11 06:21:56;;;;;;;14.03;4.93;;;13.00;99.90;;;;;;469394;253;28139;-72
2023/10/11 06:23:58;;;;;;;11.10;4.93;;;13.00;99.90;;;;;;470159;253;28184;-73
2023/10/11 06:25:59;;;;;;;11.10;4.90;;;13.10;99.90;;;;;;470136;253;29369;-73
2023/10/11 06:30:09;;;;;;;9.43;5.20;;;13.10;99.90;;;;;;470162;253;28877;-73
2023/10/11 06:32:10;;;;;;;8.90;4.20;;;13.10;99.90;;;;;;469466;253;28355;-72
2023/10/11 06:34:15;;;;;;;9.00;4.43;;;13.10;99.90;;;;;;469586;253;28447;-73
2023/10/11 06:36:07;;;;;;;12.13;5.10;;;13.20;99.90;;;;;;469269;253;28313;-72
2023/10/11 06:38:06;;;;;;;10.47;5.50;;;13.20;99.90;;;;;;470043;253;28363;-73
2023/10/11 06:40:08;;;;;;;10.43;5.27;;;13.20;99.90;;;;;;470113;253;28194;-73
2023/10/11 06:42:21;;;;;;;12.10;4.70;;;13.20;99.90;;;;;;470121;253;28283;-73
2023/10/11 06:44:19;;;;;;;10.60;5.57;;;13.20;99.90;;;;;;469909;253;28867;-72
2023/10/11 06:46:21;;;;;;;12.10;4.97;;;13.30;99.90;;;;;;470148;253;28754;-72
2023/10/11 06:48:25;;;;;;;10.27;5.50;;;13.40;99.90;;;;;;470113;253;28928;-73
2023/10/11 06:50:24;;;;;;;9.43;4.60;;;;;;;;;;469924;253;28356;-72
2023/10/11 06:52:25;;;;;;;6.93;4.43;;;13.50;99.90;;;;;;469434;253;26678;-73
2023/10/11 06:54:32;;;;;;;11.83;5.30;;;13.50;99.90;;;;;;469387;253;28317;-73
2023/10/11 06:56:28;;;;;;;18.80;5.10;;;13.60;99.90;;;;;;469019;253;28998;-72
2023/10/11 06:58:43;;;;;;;9.10;4.80;;;13.60;99.90;;;;;;469573;253;28821;-72
2023/10/11 07:00:37;;;;;;;14.07;5.97;;;13.70;99.90;;;;;;468772;253;28840;-72
2023/10/11 07:02:32;;;;;;;10.60;5.00;;;13.80;99.90;;;;;;469630;253;28329;-73
2023/10/11 07:04:36;;;;;;;9.37;5.17;;;13.90;99.90;;;;;;470129;253;28594;-73
2023/10/11 07:06:35;;;;;;;9.27;4.50;;;13.90;99.90;;;;;;469947;253;28401;-72
2023/10/11 07:08:35;;;;;;;16.00;5.80;;;13.90;99.90;;;;;;470139;253;28295;-72
2023/10/11 07:10:37;;;;;;;13.23;4.90;;;14.00;99.90;;;;;;470114;253;28648;-72
2023/10/11 07:12:41;;;;;;;13.03;4.90;;;14.00;99.90;;;;;;469943;253;28407;-72
2023/10/11 07:14:42;;;;;;;9.53;4.50;;;14.10;99.90;;;;;;470108;253;28783;-73
2023/10/11 07:16:45;;;;;;;11.30;5.03;;;;;;;;;;470114;253;28672;-72
2023/10/11 07:18:46;;;;;;;11.00;5.20;;;14.10;99.90;;;;;;470144;253;26551;-73
2023/10/11 07:21:07;;;;;;;14.80;5.57;;;14.10;99.90;;;;;;470107;253;28953;-72
2023/10/11 07:23:05;;;;;;;10.13;4.50;;;14.10;99.90;;;;;;469544;253;28971;-73
2023/10/11 07:25:19;;;;;;;12.60;4.90;;;14.30;99.90;;;;;;469810;253;28415;-72
2023/10/11 07:27:09;;;;;;;11.47;5.37;;;14.30;99.90;;;;;;468743;253;28502;-73
2023/10/11 07:29:12;;;;;;;15.77;4.97;;;14.30;99.90;;;;;;470117;253;28321;-73
2023/10/11 07:31:16;;;;;;;15.97;5.43;;;14.50;99.90;;;;;;470003;253;28581;-73
2023/10/11 07:33:13;;;;;;;13.73;5.17;;;14.50;99.90;;;;;;469762;253;29050;-72
2023/10/11 07:35:27;;;;;;;8.67;4.90;;;14.60;99.90;;;;;;470105;253;29425;-72
2023/10/11 07:37:26;;;;;;;38.13;4.93;;;14.70;99.90;;;;;;469608;253;28624;-72
2023/10/11 07:39:26;;;;;;;7.17;4.37;;;14.60;99.90;;;;;;469840;253;28965;-73
2023/10/11 07:41:30;;;;;;;6.67;3.93;;;14.60;99.90;;;;;;470101;253;28651;-73
2023/10/11 07:43:32;;;;;;;9.80;5.00;;;14.70;99.90;;;;;;469697;253;29011;-72
2023/10/11 07:45:29;;;;;;;21.10;5.43;;;14.70;99.90;;;;;;469843;253;28505;-73
2023/10/11 07:47:32;;;;;;;6.93;4.50;;;14.80;99.90;;;;;;470105;253;28927;-73
2023/10/11 07:49:38;;;;;;;11.60;5.07;;;14.90;99.90;;;;;;470058;253;29037;-72
2023/10/11 07:51:33;;;;;;;6.43;4.23;;;14.90;99.90;;;;;;469660;253;29452;-73
2023/10/11 07:53:34;;;;;;;14.07;4.60;;;14.90;99.90;;;;;;470093;253;29525;-74
2023/10/11 07:55:38;;;;;;;8.40;4.40;;;15.00;99.90;;;;;;470125;253;29017;-72
2023/10/11 07:57:44;;;;;;;8.67;5.17;;;15.00;99.90;;;;;;469929;253;28956;-73
2023/10/11 07:59:39;;;;;;;10.17;4.00;;;15.10;99.90;;;;;;469557;253;28999;-72
2023/10/11 08:01:45;;;;;;;9.40;4.80;;;15.10;99.90;;;;;;470056;253;28951;-73
2023/10/11 08:03:46;;;;;;;9.87;4.33;;;15.00;99.90;;;;;;470128;253;28942;-72
2023/10/11 08:05:53;;;;;;;10.97;4.60;;;15.00;99.90;;;;;;470114;253;28402;-73
2023/10/11 08:07:49;;;;;;;9.63;4.80;;;15.10;99.90;;;;;;469676;253;28968;-74
2023/10/11 08:09:53;;;;;;;12.17;4.40;;;15.10;99.90;;;;;;470095;253;28995;-72
2023/10/11 08:11:57;;;;;;;12.07;4.77;;;15.20;99.90;;;;;;470109;253;28938;-73
2023/10/11 08:14:03;;;;;;;10.20;4.50;;;15.20;99.90;;;;;;469944;253;29047;-73
2023/10/11 08:16:13;;;;;;;12.97;5.23;;;15.30;99.90;;;;;;469527;253;29008;-73
2023/10/11 08:18:04;;;;;;;10.27;4.00;;;15.40;99.90;;;;;;469241;253;29397;-72
2023/10/11 08:20:05;;;;;;;12.60;4.73;;;15.40;99.90;;;;;;469976;253;29462;-72
2023/10/11 08:22:09;;;;;;;13.13;4.93;;;15.40;99.90;;;;;;470051;253;29021;-72
2023/10/11 08:24:15;;;;;;;12.03;4.77;;;15.50;99.90;;;;;;469889;253;28964;-73
2023/10/11 08:26:14;;;;;;;6.17;4.23;;;15.50;99.90;;;;;;469453;253;29071;-74
2023/10/11 08:28:19;;;;;;;10.80;4.63;;;15.60;99.90;;;;;;469663;253;29000;-73
2023/10/11 08:32:17;;;;;;;9.83;3.90;;;15.70;99.90;;;;;;470028;253;28954;-72
2023/10/11 08:34:18;;;;;;;15.93;5.10;;;15.80;99.90;;;;;;470059;253;28961;-74
2023/10/11 08:36:18;;;;;;;11.90;4.90;;;15.90;99.90;;;;;;470029;253;29028;-73
2023/10/11 08:38:20;;;;;;;11.03;5.23;;;15.90;99.90;;;;;;470083;253;28971;-73
2023/10/11 08:40:22;;;;;;;12.80;4.67;;;15.90;99.90;;;;;;470099;253;28909;-72
2023/10/11 08:42:22;;;;;;;8.90;3.80;;;15.90;99.90;;;;;;470038;253;29373;-73
2023/10/11 08:44:26;;;;;;;7.87;3.83;;;16.00;99.90;;;;;;470120;253;29410;-74
2023/10/11 08:46:27;;;;;;;11.90;4.53;;;16.10;99.90;;;;;;469913;253;29433;-73
2023/10/11 08:48:26;;;;;;;12.70;4.90;;;16.10;99.90;;;;;;469907;253;29120;-73
2023/10/11 08:50:27;;;;;;;9.97;4.20;;;16.30;99.90;;;;;;470083;253;28956;-74
2023/10/11 08:52:28;;;;;;;9.47;5.00;;;16.30;99.90;;;;;;470090;253;28935;-73
2023/10/11 08:54:30;;;;;;;11.60;4.50;;;16.30;99.90;;;;;;470084;253;28966;-73
2023/10/11 08:56:33;;;;;;;9.17;4.13;;;16.40;99.90;;;;;;470117;252;28985;-73
2023/10/11 08:58:32;;;;;;;7.40;4.07;;;16.40;99.90;;;;;;469923;253;28957;-73
2023/10/11 09:00:34;;;;;;;8.63;4.50;;;16.40;99.90;;;;;;470093;253;28964;-73
2023/10/11 09:02:35;;;;;;;10.70;4.90;;;16.40;99.90;;;;;;470073;253;29090;-73
2023/10/11 09:04:36;;;;;;;10.53;4.10;;;16.40;99.90;;;;;;470075;253;29448;-73
2023/10/11 09:06:37;;;;;;;6.90;4.00;;;16.50;99.90;;;;;;470082;253;29351;-73
2023/10/11 09:08:38;;;;;;;7.30;3.77;;;16.50;99.90;;;;;;470089;253;29552;-73
2023/10/11 09:10:40;;;;;;;9.03;4.50;;;16.50;99.90;;;;;;470103;253;28945;-74
2023/10/11 09:12:41;;;;;;;12.80;4.50;;;16.60;99.90;;;;;;470094;253;29009;-73
2023/10/11 09:14:42;;;;;;;12.50;4.67;;;16.70;99.90;;;;;;470086;253;28967;-73
2023/10/11 09:16:43;;;;;;;10.73;4.53;;;16.70;99.90;;;;;;470077;253;28980;-73
2023/10/11 09:18:46;;;;;;;9.53;4.03;;;16.70;99.90;;;;;;470079;253;28976;-73
2023/10/11 09:20:49;;;;;;;6.80;4.13;;;16.80;99.90;;;;;;470001;253;29054;-72
2023/10/11 09:22:47;;;;;;;7.43;4.30;;;16.80;99.90;;;;;;469859;253;28913;-72
2023/10/11 09:24:48;;;;;;;9.43;4.80;;;16.90;99.90;;;;;;470089;253;29460;-73
2023/10/11 09:26:50;;;;;;;9.73;4.30;;;17.00;99.90;;;;;;470077;253;29445;-74
2023/10/11 09:28:57;;;;;;;6.53;3.90;;;17.10;99.90;;;;;;470085;253;29440;-73
2023/10/11 09:30:58;;;;;;;13.60;4.40;;;17.00;99.90;;;;;;470059;253;29435;-73
2023/10/11 09:32:59;;;;;;;10.03;4.07;;;17.20;99.90;;;;;;470087;253;29050;-73
2023/10/11 09:35:01;;;;;;;10.60;4.63;;;17.20;99.90;;;;;;470078;253;28980;-73
2023/10/11 09:37:02;;;;;;;9.87;4.53;;;17.30;99.90;;;;;;470058;253;29019;-73
2023/10/11 09:39:03;;;;;;;12.87;4.80;;;17.30;99.90;;;;;;470107;253;29002;-73
2023/10/11 09:41:07;;;;;;;10.00;4.47;;;17.40;99.90;;;;;;470078;253;29090;-72
2023/10/11 09:43:05;;;;;;;13.40;5.53;;;17.50;99.90;;;;;;469898;253;28957;-72
2023/10/11 09:45:07;;;;;;;11.70;4.50;;;17.50;99.90;;;;;;470109;253;29008;-72
2023/10/11 09:47:16;;;;;;;12.87;4.40;;;17.60;99.90;;;;;;470110;253;29428;-73
2023/10/11 09:49:15;;;;;;;7.13;4.13;;;17.60;99.90;;;;;;469310;253;29488;-72
2023/10/11 09:51:17;;;;;;;8.77;4.40;;;17.60;99.90;;;;;;469804;253;28973;-73
2023/10/11 09:53:19;;;;;;;11.30;3.80;;;17.60;99.90;;;;;;469797;253;28995;-72
2023/10/11 09:55:19;;;;;;;16.97;4.50;;;17.70;99.90;;;;;;470020;253;28961;-72
2023/10/11 09:57:20;;;;;;;22.17;4.80;;;17.80;99.90;;;;;;470110;253;29059;-74
2023/10/11 09:59:24;;;;;;;16.60;5.50;;;17.80;99.90;;;;;;470110;253;28922;-72
2023/10/11 10:01:26;;;;;;;9.53;4.27;;;17.90;99.90;;;;;;470110;253;28962;-74
2023/10/11 10:03:27;;;;;;;13.30;4.97;;;18.00;99.90;;;;;;470082;253;29414;-73
2023/10/11 10:05:30;;;;;;;14.50;5.40;;;18.00;99.90;;;;;;470104;253;29518;-75
2023/10/11 10:07:42;;;;;;;12.20;4.67;;;18.10;99.90;;;;;;469969;253;29461;-73
2023/10/11 10:09:31;;;;;;;9.63;4.70;;;18.30;99.90;;;;;;468893;253;28982;-72
2023/10/11 10:11:32;;;;;;;14.60;5.10;;;18.30;99.90;;;;;;470119;253;29014;-72
2023/10/11 10:13:37;;;;;;;10.77;4.40;;;18.30;99.90;;;;;;470104;253;28993;-73
2023/10/11 10:15:36;;;;;;;19.23;5.23;;;18.30;99.90;;;;;;469817;253;28946;-74
2023/10/11 10:17:37;;;;;;;11.00;4.80;;;18.40;99.90;;;;;;470055;253;28953;-72
2023/10/11 10:19:39;;;;;;;7.13;4.27;;;18.50;99.90;;;;;;469998;253;28957;-72
2023/10/11 10:21:38;;;;;;;14.63;4.80;;;18.50;99.90;;;;;;469965;253;29319;-74
2023/10/11 10:23:42;;;;;;;16.90;5.43;;;18.50;99.90;;;;;;470069;253;29392;-74
2023/10/11 10:25:46;;;;;;;12.90;4.63;;;18.60;99.90;;;;;;469961;253;29432;-74
2023/10/11 10:27:45;;;;;;;10.13;4.43;;;18.60;99.90;;;;;;469564;253;28948;-74
2023/10/11 10:29:43;;;;;;;9.50;4.43;;;18.60;99.90;;;;;;469856;253;28962;-75
2023/10/11 10:31:44;;;;;;;8.03;3.87;;;18.60;99.90;;;;;;470100;253;28991;-72
2023/10/11 10:33:50;;;;;;;8.33;4.23;;;18.60;99.90;;;;;;470096;253;28947;-72
2023/10/11 10:35:48;;;;;;;11.80;4.37;;;18.70;99.90;;;;;;469798;253;28995;-75
2023/10/11 10:37:48;;;;;;;8.03;3.87;;;18.70;99.90;;;;;;470036;253;28936;-74
2023/10/11 10:39:49;;;;;;;13.27;4.33;;;18.80;99.90;;;;;;470119;253;28973;-72
2023/10/11 10:41:51;;;;;;;8.33;4.10;;;18.90;99.90;;;;;;470057;253;30811;-75
2023/10/11 10:43:52;;;;;;;8.43;3.90;;;19.00;99.90;;;;;;470103;253;29381;-73
2023/10/11 10:45:59;;;;;;;14.07;5.00;;;19.10;99.90;;;;;;470093;253;29520;-73
2023/10/11 10:47:54;;;;;;;8.97;4.00;;;19.10;99.90;;;;;;469642;253;29363;-74
2023/10/11 10:49:56;;;;;;;15.20;4.30;;;19.00;99.90;;;;;;470066;253;28984;-73
2023/10/11 10:51:57;;;;;;;11.30;4.07;;;19.10;99.90;;;;;;470087;253;28965;-76
2023/10/11 10:54:02;;;;;;;10.00;4.40;;;19.20;99.90;;;;;;470095;253;28923;-73
2023/10/11 10:55:59;;;;;;;10.57;4.43;;;19.20;99.90;;;;;;469817;253;28972;-74
2023/10/11 10:58:01;;;;;;;9.27;4.10;;;19.20;99.90;;;;;;470116;253;28923;-74
2023/10/11 11:00:05;;;;;;;10.57;4.40;;;19.20;99.90;;;;;;470127;253;28919;-73
2023/10/11 11:02:06;;;;;;;10.53;4.60;;;19.30;99.90;;;;;;469942;253;29394;-75
2023/10/11 11:04:08;;;;;;;13.53;4.53;;;19.40;99.90;;;;;;469945;253;29402;-73
2023/10/11 11:06:11;;;;;;;12.23;3.97;;;19.40;99.90;;;;;;469411;253;29430;-74